• Join FlightAware (Why Join?)
  • Login
  • US Flag 
09:54PM EDT


 

Airport Tracker/Info


-or-


 

Live Flight TrackerFlight Track Log ✈ N502QS ✈ 03-May-2013 ✈ ZGGG / CAN - KBFI

Flight Track Log - Related Links

Times and Time Zones

All times are in EDT time to prevent confusion due to time zone crossing. See the N502QS flight status page for this flight to view local times or setup timezone preferences in your user account.

Time Position Orientation Groundspeed Altitude Reporting Facility
EDT Latitude Longitude Course Direction KTS MPH feet Rate Location/Type
11:37AM 53.4229 151.8273 34° Northeast  Level Estimated
11:38AM 53.4976 152.0390 59° Northeast  Level Estimated
11:39AM 53.5719 152.2515 59° Northeast  Level Estimated
11:40AM 53.6459 152.4647 60° Northeast  Level Estimated
11:41AM 53.7195 152.6787 60° Northeast  Level Estimated
11:42AM 53.7927 152.8934 60° Northeast  Level Estimated
11:43AM 53.8655 153.1089 60° Northeast  Level Estimated
11:44AM 53.9380 153.3251 60° Northeast  Level Estimated
11:45AM 54.0100 153.5421 60° Northeast  Level Estimated
11:46AM 54.0817 153.7598 61° Northeast  Level Estimated
11:47AM 54.1529 153.9783 61° Northeast  Level Estimated
11:48AM 54.2238 154.1976 61° Northeast  Level Estimated
11:49AM 54.2942 154.4175 61° Northeast  Level Estimated
11:50AM 54.3643 154.6383 61° Northeast  Level Estimated
11:51AM 54.4340 154.8598 62° Northeast  Level Estimated
11:52AM 54.5032 155.0820 62° Northeast  Level Estimated
11:53AM 54.5720 155.3050 62° Northeast  Level Estimated
11:54AM 54.6405 155.5287 62° Northeast  Level Estimated
11:55AM 54.7085 155.7532 62° Northeast  Level Estimated
11:56AM 54.7761 155.9785 62° Northeast  Level Estimated
11:57AM 54.8433 156.2045 63° Northeast  Level Estimated
11:58AM 54.9100 156.4312 63° Northeast  Level Estimated
11:59AM 54.9764 156.6587 63° Northeast  Level Estimated
12:00PM 55.0423 156.8870 63° Northeast  Level Estimated
12:01PM 55.1078 157.1160 63° Northeast  Level Estimated
12:02PM 55.1728 157.3457 64° Northeast  Level Estimated
12:03PM 55.2374 157.5762 64° Northeast  Level Estimated
12:04PM 55.3016 157.8075 64° Northeast  Level Estimated
12:05PM 55.3653 158.0395 64° Northeast  Level Estimated
12:06PM 55.4286 158.2722 64° Northeast  Level Estimated
12:07PM 55.4915 158.5057 65° Northeast  Level Estimated
12:08PM 55.5539 158.7399 65° Northeast  Level Estimated
12:09PM 55.6159 158.9749 65° Northeast  Level Estimated
12:10PM 55.6774 159.2106 65° Northeast  Level Estimated
12:11PM 55.7385 159.4471 65° Northeast  Level Estimated
12:12PM 55.7991 159.6843 65° Northeast  Level Estimated
12:13PM 55.8592 159.9222 66° East  Level Estimated
12:14PM 55.9189 160.1608 66° East  Level Estimated
12:15PM 55.9781 160.4003 66° East  Level Estimated
12:16PM 56.0369 160.6404 66° East  Level Estimated
12:17PM 56.0952 160.8812 66° East  Level Estimated
12:18PM 56.1530 161.1228 67° East  Level Estimated
12:19PM 56.2104 161.3651 67° East  Level Estimated
12:20PM 56.2672 161.6082 67° East  Level Estimated
12:21PM 56.3236 161.8519 67° East  Level Estimated
12:22PM 56.3796 162.0964 67° East  Level Estimated
12:23PM 56.4350 162.3416 68° East  Level Estimated
12:24PM 56.4899 162.5875 68° East  Level Estimated
12:25PM 56.5444 162.8341 68° East  Level Estimated
12:26PM 56.5984 163.0814 68° East  Level Estimated
12:27PM 56.6518 163.3294 68° East  Level Estimated
12:28PM 56.7048 163.5781 69° East  Level Estimated
12:29PM 56.7573 163.8276 69° East  Level Estimated
12:30PM 56.8093 164.0777 69° East  Level Estimated
12:31PM 56.8608 164.3285 69° East  Level Estimated
12:32PM 56.9118 164.5800 70° East  Level Estimated
12:33PM 56.9623 164.8322 70° East  Level Estimated
12:34PM 57.0122 165.0850 70° East  Level Estimated
12:35PM 57.0617 165.3386 70° East  Level Estimated
12:36PM 57.1106 165.5928 70° East  Level Estimated
12:37PM 57.1591 165.8477 71° East  Level Estimated
12:38PM 57.2070 166.1032 71° East  Level Estimated
12:39PM 57.2544 166.3594 71° East  Level Estimated
12:40PM 57.3013 166.6163 71° East  Level Estimated
12:41PM 57.3476 166.8738 71° East  Level Estimated
12:42PM 57.3934 167.1319 72° East  Level Estimated
12:43PM 57.4387 167.3907 72° East  Level Estimated
12:44PM 57.4835 167.6502 72° East  Level Estimated
12:45PM 57.5277 167.9102 72° East  Level Estimated
12:46PM 57.5714 168.1709 73° East  Level Estimated
12:47PM 57.6145 168.4323 73° East  Level Estimated
12:48PM 57.6571 168.6942 73° East  Level Estimated
12:49PM 57.6992 168.9568 73° East  Level Estimated
12:50PM 57.7407 169.2199 73° East  Level Estimated
12:51PM 57.7817 169.4837 74° East  Level Estimated
12:52PM 57.8221 169.7480 74° East  Level Estimated
12:53PM 57.8620 170.0130 74° East  Level Estimated
12:54PM 57.9013 170.2785 74° East  Level Estimated
12:55PM 57.9401 170.5446 75° East  Level Estimated
12:56PM 57.9783 170.8113 75° East  Level Estimated
12:57PM 58.0159 171.0786 75° East  Level Estimated
12:58PM 58.0530 171.3463 75° East  Level Estimated
12:58PM 43.0000 170.0000 64° Northeast 558 642 43,000  Level Oakland Oceanic (ODAPS)
12:59PM 58.0896 171.6147 75° East  Level Estimated
01:00PM 58.1255 171.8836 76° East  Level Estimated
01:01PM 58.1609 172.1530 76° East  Level Estimated
01:02PM 58.1957 172.4230 76° East  Level Estimated
01:03PM 58.2300 172.6935 76° East  Level Estimated
01:04PM 43.4712 171.3374 65° Northeast 558 642 43,000  Level FlightAware Transoceanic
01:05PM 43.5373 171.5301 65° Northeast 558 642 43,000  Level FlightAware Transoceanic
01:06PM 43.6030 171.7233 65° Northeast 558 642 43,000  Level FlightAware Transoceanic
01:07PM 43.6684 171.9169 65° Northeast 558 642 43,000  Level FlightAware Transoceanic
01:08PM 43.7335 172.1109 65° Northeast 558 642 43,000  Level FlightAware Transoceanic
01:09PM 43.7982 172.3053 65° Northeast 558 642 43,000  Level FlightAware Transoceanic
01:10PM 43.8626 172.5002 65° Northeast 558 642 43,000  Level FlightAware Transoceanic
01:11PM 43.9267 172.6954 66° East 558 642 43,000  Level FlightAware Transoceanic
01:12PM 43.9904 172.8911 66° East 558 642 43,000  Level FlightAware Transoceanic
01:13PM 44.0538 173.0872 66° East 558 642 43,000  Level FlightAware Transoceanic
01:14PM 44.1169 173.2838 66° East 558 642 43,000  Level FlightAware Transoceanic
01:15PM 44.1796 173.4807 66° East 558 642 43,000  Level FlightAware Transoceanic
01:16PM 44.2420 173.6781 66° East 558 642 43,000  Level FlightAware Transoceanic
01:17PM 44.3040 173.8758 66° East 558 642 43,000  Level FlightAware Transoceanic
01:18PM 44.3657 174.0740 67° East 558 642 43,000  Level FlightAware Transoceanic
01:19PM 44.4271 174.2727 67° East 558 642 43,000  Level FlightAware Transoceanic
01:20PM 44.4881 174.4717 67° East 558 642 43,000  Level FlightAware Transoceanic
01:21PM 44.5488 174.6711 67° East 558 642 43,000  Level FlightAware Transoceanic
01:22PM 44.6091 174.8710 67° East 558 642 43,000  Level FlightAware Transoceanic
01:23PM 44.6691 175.0713 67° East 558 642 43,000  Level FlightAware Transoceanic
01:24PM 44.7287 175.2720 67° East 558 642 43,000  Level FlightAware Transoceanic
01:25PM 44.7880 175.4731 68° East 558 642 43,000  Level FlightAware Transoceanic
01:26PM 44.8469 175.6746 68° East 558 642 43,000  Level FlightAware Transoceanic
01:27PM 44.9055 175.8765 68° East 558 642 43,000  Level FlightAware Transoceanic
01:28PM 44.9637 176.0789 68° East 558 642 43,000  Level FlightAware Transoceanic
01:29PM 45.0216 176.2816 68° East 558 642 43,000  Level FlightAware Transoceanic
01:30PM 45.0790 176.4848 68° East 558 642 43,000  Level FlightAware Transoceanic
01:31PM 45.1362 176.6883 68° East 558 642 43,000  Level FlightAware Transoceanic
01:32PM 45.1929 176.8923 69° East 558 642 43,000  Level FlightAware Transoceanic
01:33PM 45.2494 177.0967 69° East 558 642 43,000  Level FlightAware Transoceanic
01:34PM 45.3054 177.3015 69° East 558 642 43,000  Level FlightAware Transoceanic
01:35PM 45.3611 177.5067 69° East 558 642 43,000  Level FlightAware Transoceanic
01:36PM 45.4164 177.7123 69° East 558 642 43,000  Level FlightAware Transoceanic
01:37PM 45.4713 177.9182 69° East 558 642 43,000  Level FlightAware Transoceanic
01:38PM 45.5259 178.1246 69° East 558 642 43,000  Level FlightAware Transoceanic
01:39PM 45.5801 178.3314 70° East 558 642 43,000  Level FlightAware Transoceanic
01:40PM 45.6339 178.5386 70° East 558 642 43,000  Level FlightAware Transoceanic
01:41PM 45.6873 178.7462 70° East 558 642 43,000  Level FlightAware Transoceanic
01:42PM 45.7404 178.9542 70° East 558 642 43,000  Level FlightAware Transoceanic
01:43PM 45.7931 179.1626 70° East 558 642 43,000  Level FlightAware Transoceanic
01:44PM 45.8454 179.3714 70° East 558 642 43,000  Level FlightAware Transoceanic
01:45PM 45.8973 179.5805 70° East 558 642 43,000  Level FlightAware Transoceanic
01:46PM 45.9488 179.7901 71° East 558 642 43,000  Level FlightAware Transoceanic
01:47PM 46.0000 -180.0000 70° East 558 642 43,000  Level FlightAware Transoceanic
01:48PM 46.0483 -179.8077 70° East 558 642 43,000  Level FlightAware Transoceanic
01:49PM 46.0964 -179.6150 70° East 558 642 43,000  Level FlightAware Transoceanic
01:50PM 46.1440 -179.4220 70° East 558 642 43,000  Level FlightAware Transoceanic
01:51PM 46.1914 -179.2287 71° East 558 642 43,000  Level FlightAware Transoceanic
01:52PM 46.2384 -179.0350 71° East 558 642 43,000  Level FlightAware Transoceanic
01:53PM 46.2851 -178.8410 71° East 558 642 43,000  Level FlightAware Transoceanic
01:54PM 46.3315 -178.6467 71° East 558 642 43,000  Level FlightAware Transoceanic
01:55PM 46.3776 -178.4520 71° East 558 642 43,000  Level FlightAware Transoceanic
01:56PM 46.4233 -178.2570 71° East 558 642 43,000  Level FlightAware Transoceanic
01:57PM 46.4687 -178.0617 71° East 558 642 43,000  Level FlightAware Transoceanic
01:58PM 46.5137 -177.8661 72° East 558 642 43,000  Level FlightAware Transoceanic
01:59PM 46.5584 -177.6701 72° East 558 642 43,000  Level FlightAware Transoceanic
02:00PM 46.6028 -177.4738 72° East 558 642 43,000  Level FlightAware Transoceanic
02:01PM 46.6469 -177.2772 72° East 558 642 43,000  Level FlightAware Transoceanic
02:02PM 46.6906 -177.0803 72° East 558 642 43,000  Level FlightAware Transoceanic
02:03PM 46.7340 -176.8830 72° East 558 642 43,000  Level FlightAware Transoceanic
02:04PM 46.7770 -176.6855 72° East 558 642 43,000  Level FlightAware Transoceanic
02:05PM 46.8197 -176.4876 73° East 558 642 43,000 1,080 Level FlightAware Transoceanic
02:05PM 46.0000 -180.0000 70° East 523 602 45,000  Climbing Oakland Oceanic (ODAPS)
02:06PM 46.8620 -176.2894 73° East 558 642 43,000 -1,740 Descending FlightAware Transoceanic
02:07PM 46.9040 -176.0909 73° East 558 642 43,000  Level FlightAware Transoceanic
02:08PM 46.9457 -175.8921 73° East 558 642 43,000  Level FlightAware Transoceanic
02:09PM 46.9870 -175.6930 73° East 558 642 43,000  Level FlightAware Transoceanic
02:10PM 47.0280 -175.4936 73° East 558 642 43,000  Level FlightAware Transoceanic
02:11PM 47.0686 -175.2939 73° East 558 642 43,000 960 Level FlightAware Transoceanic
02:12PM 47.0884 -175.1959 74° East 523 602 45,000 960 Climbing FlightAware Transoceanic
02:13PM 47.1293 -174.9917 74° East 523 602 45,000  Level FlightAware Transoceanic
02:14PM 47.1699 -174.7871 74° East 523 602 45,000  Level FlightAware Transoceanic
02:15PM 47.2101 -174.5822 74° East 523 602 45,000  Level FlightAware Transoceanic
02:16PM 47.2499 -174.3770 74° East 523 602 45,000  Level FlightAware Transoceanic
02:17PM 47.2894 -174.1715 74° East 523 602 45,000  Level FlightAware Transoceanic
02:18PM 47.3285 -173.9657 74° East 523 602 45,000  Level FlightAware Transoceanic
02:19PM 47.3672 -173.7595 75° East 523 602 45,000  Level FlightAware Transoceanic
02:20PM 47.4055 -173.5531 75° East 523 602 45,000  Level FlightAware Transoceanic
02:21PM 47.4435 -173.3464 75° East 523 602 45,000  Level FlightAware Transoceanic
02:22PM 47.4811 -173.1394 75° East 523 602 45,000  Level FlightAware Transoceanic
02:23PM 47.5184 -172.9321 75° East 523 602 45,000  Level FlightAware Transoceanic
02:24PM 47.5552 -172.7245 75° East 523 602 45,000  Level FlightAware Transoceanic
02:25PM 47.5917 -172.5166 75° East 523 602 45,000  Level FlightAware Transoceanic
02:26PM 47.6278 -172.3084 76° East 523 602 45,000  Level FlightAware Transoceanic
02:27PM 47.6636 -172.0999 76° East 523 602 45,000  Level FlightAware Transoceanic
02:28PM 47.6990 -171.8912 76° East 523 602 45,000  Level FlightAware Transoceanic
02:29PM 47.7339 -171.6821 76° East 523 602 45,000  Level FlightAware Transoceanic
02:30PM 47.7685 -171.4728 76° East 523 602 45,000  Level FlightAware Transoceanic
02:31PM 47.8027 -171.2632 76° East 523 602 45,000  Level FlightAware Transoceanic
02:32PM 47.8366 -171.0534 77° East 523 602 45,000  Level FlightAware Transoceanic
02:33PM 47.8700 -170.8432 77° East 523 602 45,000  Level FlightAware Transoceanic
02:34PM 47.9031 -170.6328 77° East 523 602 45,000  Level FlightAware Transoceanic
02:35PM 47.9358 -170.4221 77° East 523 602 45,000  Level FlightAware Transoceanic
02:36PM 47.9681 -170.2112 77° East 523 602 45,000  Level FlightAware Transoceanic
02:37PM 48.0000 -170.0000 69° East 523 602 45,000  Level FlightAware Transoceanic
02:38PM 48.0493 -169.8043 69° East 523 602 45,000  Level FlightAware Transoceanic
02:39PM 48.0982 -169.6082 70° East 523 602 45,000  Level FlightAware Transoceanic
02:40PM 48.1467 -169.4118 70° East 523 602 45,000  Level FlightAware Transoceanic
02:41PM 48.1950 -169.2149 70° East 523 602 45,000  Level FlightAware Transoceanic
02:42PM 48.2429 -169.0177 70° East 523 602 45,000  Level FlightAware Transoceanic
02:42PM 48.0000 -170.0000 69° East 516 594 45,000  Level Oakland Oceanic (ODAPS)
02:43PM 48.2905 -168.8202 70° East 523 602 45,000  Level FlightAware Transoceanic
02:44PM 48.3377 -168.6223 70° East 523 602 45,000  Level FlightAware Transoceanic
02:45PM 48.3846 -168.4240 70° East 523 602 45,000  Level FlightAware Transoceanic
02:46PM 48.4311 -168.2253 71° East 523 602 45,000  Level FlightAware Transoceanic
02:47PM 48.4773 -168.0263 71° East 523 602 45,000  Level FlightAware Transoceanic
02:48PM 48.4398 -168.1880 71° East 516 594 45,000  Level FlightAware Transoceanic
02:49PM 48.4869 -167.9848 71° East 516 594 45,000  Level FlightAware Transoceanic
02:50PM 48.5336 -167.7812 71° East 516 594 45,000  Level FlightAware Transoceanic
02:51PM 48.5800 -167.5772 71° East 516 594 45,000  Level FlightAware Transoceanic
02:52PM 48.6260 -167.3728 71° East 516 594 45,000  Level FlightAware Transoceanic
02:53PM 48.6717 -167.1681 71° East 516 594 45,000  Level FlightAware Transoceanic
02:54PM 48.7170 -166.9630 72° East 516 594 45,000  Level FlightAware Transoceanic
02:55PM 48.7619 -166.7575 72° East 516 594 45,000  Level FlightAware Transoceanic
02:56PM 48.8065 -166.5517 72° East 516 594 45,000  Level FlightAware Transoceanic
02:57PM 48.8507 -166.3454 72° East 516 594 45,000  Level FlightAware Transoceanic
02:58PM 48.8945 -166.1389 72° East 516 594 45,000  Level FlightAware Transoceanic
02:59PM 48.9380 -165.9319 72° East 516 594 45,000  Level FlightAware Transoceanic
03:00PM 48.9811 -165.7247 73° East 516 594 45,000  Level FlightAware Transoceanic
03:01PM 49.0238 -165.5170 73° East 516 594 45,000  Level FlightAware Transoceanic
03:02PM 49.0661 -165.3090 73° East 516 594 45,000  Level FlightAware Transoceanic
03:03PM 49.1081 -165.1006 73° East 516 594 45,000  Level FlightAware Transoceanic
03:04PM 49.1497 -164.8920 73° East 516 594 45,000  Level FlightAware Transoceanic
03:05PM 49.1909 -164.6829 73° East 516 594 45,000  Level FlightAware Transoceanic
03:06PM 49.2317 -164.4735 73° East 516 594 45,000  Level FlightAware Transoceanic
03:07PM 49.2722 -164.2637 74° East 516 594 45,000  Level FlightAware Transoceanic
03:08PM 49.3123 -164.0537 74° East 516 594 45,000  Level FlightAware Transoceanic
03:09PM 49.3520 -163.8432 74° East 516 594 45,000  Level FlightAware Transoceanic
03:10PM 49.3913 -163.6325 74° East 516 594 45,000  Level FlightAware Transoceanic
03:11PM 49.4302 -163.4214 74° East 516 594 45,000  Level FlightAware Transoceanic
03:12PM 49.4688 -163.2099 74° East 516 594 45,000  Level FlightAware Transoceanic
03:13PM 49.5069 -162.9982 75° East 516 594 45,000  Level FlightAware Transoceanic
03:14PM 49.5447 -162.7861 75° East 516 594 45,000  Level FlightAware Transoceanic
03:15PM 49.5821 -162.5736 75° East 516 594 45,000  Level FlightAware Transoceanic
03:16PM 49.6191 -162.3609 75° East 516 594 45,000  Level FlightAware Transoceanic
03:17PM 49.6557 -162.1478 75° East 516 594 45,000  Level FlightAware Transoceanic
03:18PM 49.6919 -161.9344 75° East 516 594 45,000  Level FlightAware Transoceanic
03:19PM 49.7277 -161.7207 76° East 516 594 45,000  Level FlightAware Transoceanic
03:20PM 49.7631 -161.5067 76° East 516 594 45,000  Level FlightAware Transoceanic
03:21PM 49.7982 -161.2924 76° East 516 594 45,000  Level FlightAware Transoceanic
03:22PM 49.8328 -161.0777 76° East 516 594 45,000  Level FlightAware Transoceanic
03:23PM 49.8670 -160.8628 76° East 516 594 45,000  Level FlightAware Transoceanic
03:24PM 49.9009 -160.6475 76° East 516 594 45,000  Level FlightAware Transoceanic
03:25PM 49.9343 -160.4320 77° East 516 594 45,000  Level FlightAware Transoceanic
03:26PM 49.9674 -160.2161 77° East 516 594 45,000  Level FlightAware Transoceanic
03:27PM 50.0000 -160.0000 69° East 516 594 45,000  Level FlightAware Transoceanic
03:28PM 50.0523 -159.7921 69° East 516 594 45,000  Level FlightAware Transoceanic
03:29PM 50.1043 -159.5838 69° East 516 594 45,000  Level FlightAware Transoceanic
03:30PM 50.1559 -159.3751 69° East 516 594 45,000  Level FlightAware Transoceanic
03:31PM 50.2071 -159.1659 69° East 516 594 45,000  Level FlightAware Transoceanic
03:31PM 50.0000 -160.0000 69° East 496 571 45,000  Level Oakland Oceanic (ODAPS)
03:32PM 50.2579 -158.9563 69° East 516 594 45,000  Level FlightAware Transoceanic
03:33PM 50.3083 -158.7462 69° East 516 594 45,000  Level FlightAware Transoceanic
03:34PM 50.3584 -158.5356 70° East 516 594 45,000  Level FlightAware Transoceanic
03:35PM 50.4081 -158.3246 70° East 516 594 45,000  Level FlightAware Transoceanic
03:36PM 50.4574 -158.1132 70° East 516 594 45,000  Level FlightAware Transoceanic
03:37PM 50.5063 -157.9014 70° East 516 594 45,000  Level FlightAware Transoceanic
03:38PM 50.5790 -157.5828 70° East 496 571 45,000  Level FlightAware Transoceanic
03:39PM 50.6250 -157.3787 71° East 496 571 45,000  Level FlightAware Transoceanic
03:40PM 50.6706 -157.1742 71° East 496 571 45,000  Level FlightAware Transoceanic
03:41PM 50.7158 -156.9693 71° East 496 571 45,000  Level FlightAware Transoceanic
03:42PM 50.7607 -156.7641 71° East 496 571 45,000  Level FlightAware Transoceanic
03:43PM 50.8052 -156.5584 71° East 496 571 45,000  Level FlightAware Transoceanic
03:44PM 50.8494 -156.3524 71° East 496 571 45,000  Level FlightAware Transoceanic
03:45PM 50.8932 -156.1460 71° East 496 571 45,000  Level FlightAware Transoceanic
03:46PM 50.9366 -155.9391 72° East 496 571 45,000  Level FlightAware Transoceanic
03:47PM 50.9797 -155.7319 72° East 496 571 45,000  Level FlightAware Transoceanic
03:48PM 51.0224 -155.5244 72° East 496 571 45,000  Level FlightAware Transoceanic
03:49PM 51.0648 -155.3164 72° East 496 571 45,000  Level FlightAware Transoceanic
03:50PM 51.1067 -155.1080 72° East 496 571 45,000  Level FlightAware Transoceanic
03:51PM 51.1483 -154.8993 72° East 496 571 45,000  Level FlightAware Transoceanic
03:52PM 51.1896 -154.6902 73° East 496 571 45,000  Level FlightAware Transoceanic
03:53PM 51.2304 -154.4808 73° East 496 571 45,000  Level FlightAware Transoceanic
03:54PM 51.2709 -154.2709 73° East 496 571 45,000  Level FlightAware Transoceanic
03:55PM 51.3110 -154.0607 73° East 496 571 45,000  Level FlightAware Transoceanic
03:56PM 51.3507 -153.8501 73° East 496 571 45,000  Level FlightAware Transoceanic
03:57PM 51.3901 -153.6392 73° East 496 571 45,000  Level FlightAware Transoceanic
03:58PM 51.4290 -153.4279 74° East 496 571 45,000  Level FlightAware Transoceanic
03:59PM 51.4676 -153.2162 74° East 496 571 45,000  Level FlightAware Transoceanic
04:00PM 51.5058 -153.0042 74° East 496 571 45,000  Level FlightAware Transoceanic
04:01PM 51.5437 -152.7918 74° East 496 571 45,000  Level FlightAware Transoceanic
04:02PM 51.5811 -152.5791 74° East 496 571 45,000  Level FlightAware Transoceanic
04:03PM 51.6181 -152.3660 74° East 496 571 45,000  Level FlightAware Transoceanic
04:04PM 51.6548 -152.1526 75° East 496 571 45,000  Level FlightAware Transoceanic
04:05PM 51.6911 -151.9389 75° East 496 571 45,000  Level FlightAware Transoceanic
04:06PM 51.7270 -151.7248 75° East 496 571 45,000  Level FlightAware Transoceanic
04:07PM 51.7625 -151.5103 75° East 496 571 45,000  Level FlightAware Transoceanic
04:08PM 51.7976 -151.2955 75° East 496 571 45,000  Level FlightAware Transoceanic
04:09PM 51.8323 -151.0804 75° East 496 571 45,000  Level FlightAware Transoceanic
04:10PM 51.8666 -150.8650 76° East 496 571 45,000  Level FlightAware Transoceanic
04:11PM 51.9006 -150.6492 76° East 496 571 45,000  Level FlightAware Transoceanic
04:12PM 51.9341 -150.4331 76° East 496 571 45,000  Level FlightAware Transoceanic
04:13PM 51.9673 -150.2167 76° East 496 571 45,000  Level FlightAware Transoceanic
04:14PM 52.0000 -150.0000 86° East 496 571 45,000  Level FlightAware Transoceanic
04:15PM 52.0096 -149.7681 86° East 496 571 45,000  Level FlightAware Transoceanic
04:16PM 52.0188 -149.5361 86° East 496 571 45,000  Level FlightAware Transoceanic
04:17PM 52.0275 -149.3041 87° East 496 571 45,000  Level FlightAware Transoceanic
04:17PM 52.0000 -150.0000 86° East 517 595 45,000  Level Oakland Oceanic (ODAPS)
04:18PM 52.0357 -149.0719 87° East 496 571 45,000  Level FlightAware Transoceanic
04:19PM 52.0435 -148.8397 87° East 496 571 45,000  Level FlightAware Transoceanic
04:20PM 52.0508 -148.6074 87° East 496 571 45,000  Level FlightAware Transoceanic
04:21PM 52.0577 -148.3750 87° East 496 571 45,000  Level FlightAware Transoceanic
04:22PM 52.0641 -148.1425 88° East 496 571 45,000  Level FlightAware Transoceanic
04:23PM 52.0701 -147.9100 88° East 496 571 45,000  Level FlightAware Transoceanic
04:24PM 52.0701 -147.9100 88° East 517 595 45,000  Level FlightAware Transoceanic
04:25PM 52.0756 -147.6774 88° East 517 595 45,000  Level FlightAware Transoceanic
04:26PM 52.0806 -147.4448 88° East 517 595 45,000  Level FlightAware Transoceanic
04:27PM 52.0852 -147.2121 88° East 517 595 45,000  Level FlightAware Transoceanic
04:28PM 52.0894 -146.9794 88° East 517 595 45,000  Level FlightAware Transoceanic
04:29PM 52.0930 -146.7466 89° East 517 595 45,000  Level FlightAware Transoceanic
04:30PM 52.0962 -146.5138 89° East 517 595 45,000  Level FlightAware Transoceanic
04:31PM 52.0990 -146.2810 89° East 517 595 45,000  Level FlightAware Transoceanic
04:32PM 52.1013 -146.0481 89° East 517 595 45,000  Level FlightAware Transoceanic
04:33PM 52.1031 -145.8152 89° East 517 595 45,000  Level FlightAware Transoceanic
04:34PM 52.1045 -145.5823 90° East 517 595 45,000  Level FlightAware Transoceanic
04:35PM 52.1054 -145.3494 90° East 517 595 45,000  Level FlightAware Transoceanic
04:36PM 52.1059 -145.1165 90° East 517 595 45,000  Level FlightAware Transoceanic
04:37PM 52.1059 -144.8835 90° East 517 595 45,000  Level FlightAware Transoceanic
04:38PM 52.1054 -144.6506 90° East 517 595 45,000  Level FlightAware Transoceanic
04:39PM 52.1045 -144.4177 90° East 517 595 45,000  Level FlightAware Transoceanic
04:40PM 52.1031 -144.1848 91° East 517 595 45,000  Level FlightAware Transoceanic
04:41PM 52.1013 -143.9519 91° East 517 595 45,000  Level FlightAware Transoceanic
04:42PM 52.0990 -143.7190 91° East 517 595 45,000  Level FlightAware Transoceanic
04:43PM 52.0962 -143.4862 91° East 517 595 45,000  Level FlightAware Transoceanic
04:44PM 52.0930 -143.2534 91° East 517 595 45,000  Level FlightAware Transoceanic
04:45PM 52.0894 -143.0206 92° East 517 595 45,000  Level FlightAware Transoceanic
04:46PM 52.0852 -142.7879 92° East 517 595 45,000  Level FlightAware Transoceanic
04:47PM 52.0806 -142.5552 92° East 517 595 45,000  Level FlightAware Transoceanic
04:48PM 52.0756 -142.3226 92° East 517 595 45,000  Level FlightAware Transoceanic
04:49PM 52.0701 -142.0900 92° East 517 595 45,000  Level FlightAware Transoceanic
04:50PM 52.0641 -141.8575 92° East 517 595 45,000  Level FlightAware Transoceanic
04:51PM 52.0577 -141.6250 93° East 517 595 45,000  Level FlightAware Transoceanic
04:52PM 52.0508 -141.3926 93° East 517 595 45,000  Level FlightAware Transoceanic
04:53PM 52.0435 -141.1603 93° East 517 595 45,000  Level FlightAware Transoceanic
04:54PM 52.0357 -140.9281 93° East 517 595 45,000  Level FlightAware Transoceanic
04:55PM 52.0275 -140.6959 93° East 517 595 45,000  Level FlightAware Transoceanic
04:56PM 52.0188 -140.4639 94° East 517 595 45,000  Level FlightAware Transoceanic
04:57PM 52.0096 -140.2319 94° East 517 595 45,000  Level FlightAware Transoceanic
04:58PM 52.0000 -140.0000 104° East 517 595 45,000  Level FlightAware Transoceanic
04:59PM 51.9652 -139.7714 104° East 517 595 45,000  Level FlightAware Transoceanic
05:00PM 51.9299 -139.5432 104° East 517 595 45,000  Level FlightAware Transoceanic
05:01PM 51.8942 -139.3153 104° East 517 595 45,000  Level FlightAware Transoceanic
05:01PM 52.0000 -140.0000 104° East 504 580 45,000  Level Oakland Oceanic (ODAPS)
05:02PM 51.8581 -139.0878 105° East 517 595 45,000  Level FlightAware Transoceanic
05:03PM 51.8215 -138.8607 105° East 517 595 45,000  Level FlightAware Transoceanic
05:04PM 51.7845 -138.6339 105° East 517 595 45,000  Level FlightAware Transoceanic
05:05PM 51.7470 -138.4076 105° East 517 595 45,000  Level FlightAware Transoceanic
05:06PM 51.7091 -138.1815 105° East 517 595 45,000  Level FlightAware Transoceanic
05:07PM 51.6842 -138.0340 105° East 504 580 45,000  Level FlightAware Transoceanic
05:08PM 51.6470 -137.8173 106° East 504 580 45,000  Level FlightAware Transoceanic
05:09PM 51.6095 -137.6009 106° East 504 580 45,000  Level FlightAware Transoceanic
05:10PM 51.5716 -137.3849 106° East 504 580 45,000  Level FlightAware Transoceanic
05:11PM 51.5333 -137.1693 106° East 504 580 45,000  Level FlightAware Transoceanic
05:12PM 51.4946 -136.9540 106° East 504 580 45,000  Level FlightAware Transoceanic
05:13PM 51.4556 -136.7391 106° East 504 580 45,000  Level FlightAware Transoceanic
05:14PM 51.4161 -136.5245 107° East 504 580 45,000 -26,520 Level FlightAware Transoceanic
05:14PM 49.2833 -123.1667 108° East 70 81 1,700  Descending Vancouver Center
05:15PM 51.3762 -136.3104 107° East 504 580 45,000 31,680 Climbing FlightAware Transoceanic
05:16PM 51.3359 -136.0966 107° East 504 580 45,000  Level FlightAware Transoceanic
05:17PM 51.2953 -135.8832 107° East 504 580 45,000  Level FlightAware Transoceanic
05:17PM 48.9542 -122.9995 162° South  Level Estimated
05:18PM 51.2543 -135.6701 107° East 504 580 45,000  Level FlightAware Transoceanic
05:19PM 51.2128 -135.4575 107° East 504 580 45,000  Level FlightAware Transoceanic
05:20PM 51.1710 -135.2452 108° East 504 580 45,000 -60 Level FlightAware Transoceanic
05:21PM 51.1667 -135.3500 146° Southeast 500 575 44,900 -60 Descending Vancouver Center
05:22PM 51.1167 -135.1333 110° East 510 587 44,900  Level Vancouver Center
05:23PM 51.0833 -134.9167 104° East 510 587 44,900  Level Vancouver Center
05:24PM 47.9794 -122.5177 162° South  Level Estimated
05:24PM 51.0333 -134.7167 112° Southeast 510 587 44,900  Level Vancouver Center
05:25PM 47.8400 -122.4503 162° South  Level Estimated
05:25PM 50.9833 -134.4833 109° East 510 587 44,900  Level Vancouver Center
05:26PM 47.7052 -122.3856 146° Southeast  Level Estimated
05:26PM 50.9167 -134.2833 118° Southeast 520 598 44,900  Level Vancouver Center
05:27PM 50.8500 -134.0833 118° Southeast 510 587 44,900  Level Vancouver Center
05:28PM 50.7833 -133.8833 118° Southeast 510 587 44,900  Level Vancouver Center
05:29PM 50.7167 -133.7000 120° Southeast 510 587 44,900  Level Vancouver Center
05:30PM 50.6333 -133.4833 121° Southeast 520 598 44,900  Level Vancouver Center
05:31PM 50.5667 -133.3000 120° Southeast 510 587 44,900  Level Vancouver Center
05:32PM 50.5000 -133.1000 118° Southeast 520 598 44,900  Level Vancouver Center
05:33PM 50.4500 -132.9167 113° Southeast 490 564 44,900  Level Vancouver Center
05:34PM 50.3667 -132.7167 123° Southeast 500 575 44,900  Level Vancouver Center
05:35PM 50.3000 -132.5333 120° Southeast 510 587 44,900  Level Vancouver Center
05:36PM 50.2333 -132.3500 120° Southeast 510 587 44,900  Level Vancouver Center
05:37PM 50.1500 -132.1500 123° Southeast 510 587 44,900  Level Vancouver Center
05:38PM 50.0833 -131.9500 117° Southeast 510 587 44,900  Level Vancouver Center
05:39PM 50.0000 -131.7500 123° Southeast 520 598 44,900  Level Vancouver Center
05:40PM 49.9333 -131.5833 122° Southeast 510 587 44,900  Level Vancouver Center
05:41PM 49.8500 -131.4000 125° Southeast 500 575 44,900  Level Vancouver Center
05:42PM 49.7833 -131.2000 117° Southeast 500 575 44,900  Level Vancouver Center
05:43PM 49.7167 -131.0167 119° Southeast 500 575 44,900  Level Vancouver Center
05:44PM 49.6500 -130.8500 122° Southeast 490 564 44,900  Level Vancouver Center
05:45PM 49.5667 -130.6500 123° Southeast 500 575 44,900  Level Vancouver Center
05:46PM 49.5000 -130.4833 122° Southeast 500 575 44,900  Level Vancouver Center
05:47PM 49.4167 -130.3000 125° Southeast 500 575 44,900  Level Vancouver Center
05:48PM 49.3500 -130.1000 117° Southeast 490 564 44,900  Level Vancouver Center
05:49PM 49.3333 -129.9167 98° East 490 564 44,900  Level Vancouver Center
05:50PM 49.2833 -129.7167 111° Southeast 490 564 44,900  Level Vancouver Center
05:51PM 49.2500 -129.5333 106° East 490 564 44,900  Level Vancouver Center
05:52PM 49.2000 -129.3000 108° East 500 575 44,900  Level Vancouver Center
05:53PM 49.1833 -129.1167 98° East 500 575 44,900  Level Vancouver Center
05:54PM 49.1500 -128.9000 103° East 500 575 44,900  Level Vancouver Center
05:55PM 49.1000 -128.7000 111° Southeast 510 587 44,900  Level Vancouver Center
05:56PM 49.0667 -128.4833 103° East 510 587 44,900  Level Vancouver Center
05:57PM 49.0167 -128.2833 111° Southeast 510 587 44,900  Level Vancouver Center
05:58PM 49.0000 -128.0667 97° East 510 587 44,900  Level Vancouver Center
05:59PM 48.9500 -127.8667 111° Southeast 510 587 44,900  Level Vancouver Center
06:00PM 48.9000 -127.6667 111° Southeast 500 575 44,900  Level Vancouver Center
06:01PM 48.8667 -127.4500 103° East 500 575 44,900  Level Vancouver Center
06:02PM 48.8333 -127.2500 104° East 500 575 44,900  Level Vancouver Center
06:03PM 48.8000 -127.0500 104° East 500 575 44,900  Level Vancouver Center
06:04PM 48.7500 -126.8667 112° Southeast 490 564 44,900  Level Vancouver Center
06:05PM 48.7167 -126.6667 104° East 490 564 44,900  Level Vancouver Center
06:06PM 48.6667 -126.4500 109° East 490 564 44,900  Level Vancouver Center
06:07PM 48.6333 -126.2500 104° East 490 564 44,900  Level Vancouver Center
06:08PM 48.5833 -126.0667 112° Southeast 490 564 44,900 -60 Level Vancouver Center
06:09PM 48.5500 -125.8667 104° East 490 564 44,800 -480 Descending Vancouver Center
06:10PM 48.5000 -125.6667 111° Southeast 490 564 44,000 -1,200 Descending Vancouver Center
06:11PM 48.4667 -125.4833 105° East 500 575 42,500 -1,980 Descending Vancouver Center
06:12PM 48.4333 -125.2667 103° East 500 575 40,100 -2,400 Descending Vancouver Center
06:13PM 48.3833 -125.0833 112° Southeast 500 575 37,800 -2,400 Descending Vancouver Center
06:14PM 48.3333 -124.8833 111° Southeast 490 564 35,400 -2,220 Descending Vancouver Center
06:14PM 48.3344 -124.7883 89° East 488 562 34,200 -2,280 Descending Seattle Center
06:15PM 48.2933 -124.5908 107° East 494 568 31,700 -2,760 Descending Seattle Center
06:17PM 48.2597 -124.3525 102° East 491 565 28,700 -2,700 Descending Seattle Center
06:18PM 48.2317 -124.1583 102° East 480 552 26,300 -2,400 Descending Seattle Center
06:19PM 48.2039 -123.9708 102° East 466 536 23,900 -2,280 Descending Seattle Center
06:20PM 48.1772 -123.7861 102° East 458 527 21,700 -2,280 Descending Seattle Center
06:21PM 48.1506 -123.6081 103° East 443 510 19,300 -2,160 Descending Seattle Center
06:22PM 48.1256 -123.4358 102° East 429 494 17,400 -2,040 Descending Seattle Center
06:23PM 48.0997 -123.2711 103° East 414 476 15,200 -2,220 Descending Seattle Center
06:24PM 48.0714 -123.0961 104° East 394 453 13,000 -1,500 Descending Seattle Center
06:25PM 48.0467 -122.9403 103° East 391 450 12,200 -540 Descending Seattle Center
06:26PM 47.9925 -122.8072 121° Southeast 399 459 12,000 -120 Descending Seattle Center
06:27PM 47.8997 -122.7219 148° Southeast 396 456 12,000  Level Seattle Center
06:28PM 47.7964 -122.6306 149° Southeast 393 452 12,000 -60 Level Seattle Center
06:29PM 47.7075 -122.5517 149° Southeast 371 427 11,900 -660 Descending Seattle Center
06:30PM 47.6303 -122.4850 150° Southeast 311 358 10,700 -1,200 Descending Seattle Center
06:31PM 47.5536 -122.4356 156° South 290 334 9,500 -1,140 Descending Seattle Center
06:32PM 47.4822 -122.3992 161° South 240 276 8,400 -1,140 Descending Seattle Center
06:33PM 47.4242 -122.3722 163° South 211 243 7,300 -1,140 Descending Seattle Center
06:34PM 47.3708 -122.3458 161° South 210 242 6,100 -1,440 Descending Seattle Center
06:35PM 47.3533 -122.2769 111° Southeast 203 234 4,400 -1,740 Descending Seattle Center
06:36PM 47.4019 -122.2403 27° Northeast 181 208 2,700 -1,260 Descending Seattle Center
06:37PM 47.4467 -122.2417 359° North 161 185 1,900 -900 Descending Seattle Center
06:38PM 47.4872 -122.2689 336° Northwest 146 168 900 -840 Descending Seattle Center
06:39PM 47.5136 -122.2903 331° Northwest 123 142 200 -420 Descending Seattle Center
06:40PM 47.5303 -122.3028 333° Northwest 91 105 100 -60 Descending Seattle Center
06:41PM 47.5333 -122.3028 360° North 41 47 100  Level Seattle Center